Overview Statistics Trail Chart Weather Telemetry Raw packets
 

This is the latest recevied weather packets stored in our database for station/object I8ZSE-10. If no packets are shown the sender has not sent any weather packets the latest 10 day(s).

<< 17 18 19 20 21 22 23 >>
Time Temp. Humidity Pressure Rain* Wind** Luminosity Snow
1788389130 23.89° C 64% - 0 mm - - -
1788388530 23.89° C 64% - 0 mm - - -
1788387930 23.89° C 67% - 0 mm - - -
1788387330 23.33° C 69% - 0 mm - - -
1788386730 24.44° C 67% - 0 mm - - -
1788386130 24.44° C 68% - 0 mm - - -
1788385530 25° C 66% - 0 mm - - -
1788384930 25° C 66% - 0 mm - - -
1788384330 25.56° C 65% - 0 mm - - -
1788383730 25° C 71% - 0 mm - - -
1788383130 25° C 73% - 0 mm - - -
1788382530 25° C 72% - 0 mm - - -
1788381930 25° C 73% - 0 mm - - -
1788381330 25° C 72% - 0 mm - - -
1788380730 25° C 72% - 0 mm - - -
1788380130 25° C 72% - 0 mm - - -
1788379530 25.56° C 69% - 0 mm - - -
1788378930 26.67° C 60% - 0 mm - - -
1788378330 26.67° C 59% - 0 mm - - -
1788377730 25.56° C 61% - 0 mm - - -
1788377130 26.67° C 53% - 0 mm - - -
1788376530 26.67° C 51% - 0 mm - - -
1788375930 26.67° C 53% - 0 mm - - -
1788375330 25.56° C 58% - 0 mm - - -
1788374730 26.11° C 54% - 0 mm - - -

* Rain latest hour (hover to see other rain measurements)
** Current wind speed in m/s (hover to see current wind gust speed)